createdAt,value
2022-08-01T00:00:02.728Z,220
2022-08-01T00:00:48.655Z,220
2022-08-01T00:01:34.609Z,220
2022-08-01T00:02:20.635Z,220
2022-08-01T00:03:07.025Z,220
2022-08-01T00:03:53.173Z,220
2022-08-01T00:04:38.748Z,220
2022-08-01T00:05:24.679Z,220
2022-08-01T00:06:10.652Z,220
2022-08-01T00:06:56.655Z,220
2022-08-01T00:07:42.760Z,220
2022-08-01T00:08:28.652Z,220
2022-08-01T00:09:23.610Z,220
2022-08-01T00:10:00.682Z,220
2022-08-01T00:10:46.839Z,220
2022-08-01T00:11:33.027Z,220
2022-08-01T00:12:18.789Z,220
2022-08-01T00:13:04.649Z,220
2022-08-01T00:13:50.672Z,220
2022-08-01T00:14:36.965Z,220
2022-08-01T00:15:22.746Z,220
2022-08-01T00:16:08.681Z,220
2022-08-01T00:16:54.663Z,220
2022-08-01T00:17:40.744Z,220
2022-08-01T00:18:26.668Z,220
2022-08-01T00:19:20.005Z,220
2022-08-01T00:19:58.721Z,220
2022-08-01T00:20:44.664Z,220
2022-08-01T00:21:30.665Z,220
2022-08-01T00:22:16.788Z,220
2022-08-01T00:23:02.709Z,220
2022-08-01T00:23:48.685Z,220
2022-08-01T00:24:34.736Z,220
2022-08-01T00:25:21.110Z,220
2022-08-01T00:26:06.860Z,220
2022-08-01T00:26:52.958Z,220
2022-08-01T00:27:38.821Z,220
2022-08-01T00:28:24.673Z,220
2022-08-01T00:30:04.736Z,220
2022-08-01T00:30:42.798Z,220
2022-08-01T00:31:28.735Z,220
2022-08-01T00:32:14.734Z,220
2022-08-01T00:33:00.870Z,220
2022-08-01T00:33:46.789Z,220
2022-08-01T00:34:32.745Z,220
2022-08-01T00:35:18.824Z,220
2022-08-01T00:36:04.756Z,220
2022-08-01T00:36:50.748Z,220
2022-08-01T00:37:36.902Z,220
2022-08-01T00:38:22.806Z,220
2022-08-01T00:39:08.722Z,220
2022-08-01T00:39:54.715Z,220
2022-08-01T00:40:40.887Z,220
2022-08-01T00:41:26.766Z,220
2022-08-01T00:42:12.904Z,220
2022-08-01T00:42:58.770Z,220
2022-08-01T00:43:44.853Z,220
2022-08-01T00:44:30.758Z,220
2022-08-01T00:45:16.839Z,220
2022-08-01T00:46:02.756Z,220
2022-08-01T00:46:48.715Z,220
2022-08-01T00:47:34.814Z,220
2022-08-01T00:48:20.795Z,220
2022-08-01T00:49:07.022Z,220
2022-08-01T00:49:53.538Z,220
2022-08-01T00:50:38.890Z,220
2022-08-01T00:51:24.776Z,220
2022-08-01T00:52:10.774Z,220
2022-08-01T00:52:56.795Z,220
2022-08-01T00:53:51.763Z,220
2022-08-01T00:54:28.821Z,220
2022-08-01T00:55:15.241Z,220
2022-08-01T00:56:00.773Z,220
2022-08-01T00:56:46.883Z,220
2022-08-01T00:58:03.853Z,220
2022-08-01T00:58:18.869Z,220
2022-08-01T00:59:04.777Z,220
2022-08-01T00:59:50.789Z,220
2022-08-01T01:00:53.672Z,220
2022-08-01T01:01:22.976Z,220
2022-08-01T01:02:15.305Z,220
2022-08-01T01:02:54.845Z,220
2022-08-01T01:03:58.727Z,220
2022-08-01T01:04:26.835Z,220
2022-08-01T01:05:12.864Z,220
2022-08-01T01:05:58.777Z,220
2022-08-01T01:06:44.780Z,220
2022-08-01T01:07:30.829Z,220
2022-08-01T01:08:16.836Z,220
2022-08-01T01:09:03.503Z,220
2022-08-01T01:09:48.788Z,220
2022-08-01T01:10:34.810Z,220
2022-08-01T01:11:20.813Z,220
2022-08-01T01:12:07.289Z,220
2022-08-01T01:12:53.080Z,220
2022-08-01T01:13:50.095Z,220
2022-08-01T01:14:24.873Z,220
2022-08-01T01:15:10.829Z,220
2022-08-01T01:15:56.845Z,220
2022-08-01T01:16:42.887Z,220
2022-08-01T01:17:40.698Z,220
2022-08-01T01:18:14.827Z,220
2022-08-01T01:19:00.834Z,220
2022-08-01T01:19:46.986Z,220
2022-08-01T01:20:32.879Z,280
2022-08-01T01:21:18.966Z,280
2022-08-01T01:22:05.152Z,280
2022-08-01T01:22:50.893Z,280
2022-08-01T01:23:37.111Z,280
2022-08-01T01:24:22.852Z,280
2022-08-01T01:25:08.818Z,280
2022-08-01T01:25:54.821Z,280
2022-08-01T01:26:40.996Z,280
2022-08-01T01:27:26.869Z,280
2022-08-01T01:28:12.934Z,281
2022-08-01T01:28:58.905Z,281
2022-08-01T01:29:58.619Z,281
2022-08-01T01:30:30.867Z,281
2022-08-01T01:31:16.925Z,281
2022-08-01T01:32:03.104Z,281
2022-08-01T01:32:48.957Z,281
2022-08-01T01:33:34.902Z,281
2022-08-01T01:34:20.927Z,281
2022-08-01T01:35:07.202Z,281
2022-08-01T01:35:53.003Z,281
2022-08-01T01:36:40.654Z,281
2022-08-01T01:37:24.871Z,281
2022-08-01T01:38:10.902Z,281
2022-08-01T01:38:56.921Z,281
2022-08-01T01:39:45.340Z,281
2022-08-01T01:40:28.933Z,281
2022-08-01T01:41:14.945Z,281
2022-08-01T01:42:01.036Z,281
2022-08-01T01:42:46.961Z,281
2022-08-01T01:43:33.636Z,281
2022-08-01T01:44:18.978Z,281
2022-08-01T01:45:04.989Z,281
2022-08-01T01:45:50.905Z,281
2022-08-01T01:46:37.157Z,281
2022-08-01T01:47:22.940Z,281
2022-08-01T01:48:08.916Z,281
2022-08-01T01:48:54.968Z,281
2022-08-01T01:49:41.034Z,281
2022-08-01T01:50:26.950Z,281
2022-08-01T01:51:12.952Z,281
2022-08-01T01:52:02.733Z,281
2022-08-01T01:52:44.906Z,281
2022-08-01T01:53:30.886Z,281
2022-08-01T01:54:17.058Z,281
2022-08-01T01:55:02.991Z,281
2022-08-01T01:55:50.144Z,281
2022-08-01T01:56:34.948Z,281
2022-08-01T01:57:21.020Z,281
2022-08-01T01:58:07.179Z,281
2022-08-01T01:58:53.122Z,281
2022-08-01T01:59:39.098Z,281
2022-08-01T02:00:25.037Z,281
2022-08-01T02:01:14.437Z,281
2022-08-01T02:02:05.300Z,281
2022-08-01T02:02:43.094Z,281
2022-08-01T02:03:29.074Z,281
2022-08-01T02:04:14.974Z,281
2022-08-01T02:05:00.961Z,281
2022-08-01T02:05:47.005Z,281
2022-08-01T02:06:33.011Z,281
2022-08-01T02:07:19.095Z,281
2022-08-01T02:08:05.019Z,281
2022-08-01T02:08:51.011Z,281
2022-08-01T02:09:37.240Z,281
2022-08-01T02:10:28.546Z,281
2022-08-01T02:11:08.953Z,281
2022-08-01T02:12:07.454Z,281
2022-08-01T02:12:41.058Z,281
2022-08-01T02:13:27.028Z,281
2022-08-01T02:14:12.982Z,281
2022-08-01T02:14:59.008Z,281
2022-08-01T02:15:59.693Z,281
2022-08-01T02:16:30.992Z,281
2022-08-01T02:17:17.014Z,281
2022-08-01T02:18:03.052Z,281
2022-08-01T02:18:48.989Z,281
2022-08-01T02:19:38.615Z,281
2022-08-01T02:20:21.232Z,281
2022-08-01T02:21:07.209Z,281
2022-08-01T02:21:53.237Z,281
2022-08-01T02:22:39.247Z,281
2022-08-01T02:23:25.050Z,281
2022-08-01T02:24:11.065Z,281
2022-08-01T02:24:57.071Z,281
2022-08-01T02:26:09.759Z,281
2022-08-01T02:26:29.068Z,281
2022-08-01T02:27:15.018Z,281
2022-08-01T02:28:01.042Z,281
2022-08-01T02:28:47.054Z,281
2022-08-01T02:29:33.031Z,281
2022-08-01T02:30:19.274Z,281
2022-08-01T02:31:05.026Z,281
2022-08-01T02:31:51.055Z,281
2022-08-01T02:32:37.220Z,281
2022-08-01T02:33:23.078Z,281
2022-08-01T02:34:09.044Z,281
2022-08-01T02:34:55.030Z,281
2022-08-01T02:36:31.362Z,281
2022-08-01T02:37:13.064Z,281
2022-08-01T02:37:59.072Z,281
2022-08-01T02:38:45.068Z,281
2022-08-01T02:39:31.033Z,281
2022-08-01T02:40:17.054Z,281
2022-08-01T02:41:03.085Z,281
2022-08-01T02:41:49.054Z,281
2022-08-01T02:42:35.070Z,281
2022-08-01T02:43:21.070Z,281
2022-08-01T02:44:07.199Z,281
2022-08-01T02:44:53.146Z,281
2022-08-01T02:45:39.334Z,281
2022-08-01T02:46:25.079Z,281
2022-08-01T02:47:11.054Z,281
2022-08-01T02:47:57.059Z,281
2022-08-01T02:48:43.098Z,281
2022-08-01T02:49:29.171Z,281
2022-08-01T02:50:15.064Z,281
2022-08-01T02:51:01.107Z,281
2022-08-01T02:51:47.145Z,281
2022-08-01T02:52:33.119Z,281
2022-08-01T02:53:19.241Z,281
2022-08-01T02:54:05.091Z,281
2022-08-01T02:54:51.091Z,281
2022-08-01T02:55:37.216Z,281
2022-08-01T02:56:23.134Z,281
2022-08-01T02:57:09.089Z,281
2022-08-01T02:57:56.725Z,281
2022-08-01T02:58:41.124Z,281
2022-08-01T02:59:27.113Z,281
2022-08-01T03:00:13.187Z,281
2022-08-01T03:00:59.136Z,281
2022-08-01T03:01:45.142Z,281
2022-08-01T03:02:31.083Z,281
2022-08-01T03:03:17.110Z,280
2022-08-01T03:04:03.103Z,280
2022-08-01T03:04:52.637Z,280
2022-08-01T03:05:35.123Z,280
2022-08-01T03:06:21.118Z,280
2022-08-01T03:07:07.122Z,280
2022-08-01T03:07:53.093Z,229
2022-08-01T03:08:39.327Z,226
2022-08-01T03:09:25.195Z,226
2022-08-01T03:10:11.107Z,226
2022-08-01T03:10:57.113Z,226
2022-08-01T03:11:43.126Z,226
2022-08-01T03:12:29.235Z,226
2022-08-01T03:13:15.148Z,226
2022-08-01T03:14:01.168Z,226
2022-08-01T03:14:47.523Z,226
2022-08-01T03:15:33.209Z,225
2022-08-01T03:16:19.321Z,226
2022-08-01T03:17:05.119Z,227
2022-08-01T03:17:51.149Z,233
2022-08-01T03:18:37.157Z,224
2022-08-01T03:19:23.127Z,224
2022-08-01T03:20:09.115Z,224
2022-08-01T03:20:55.146Z,224
2022-08-01T03:21:41.165Z,224
2022-08-01T03:22:27.169Z,226
2022-08-01T03:23:13.142Z,200
2022-08-01T03:23:59.156Z,213
2022-08-01T03:24:45.181Z,210
2022-08-01T03:25:31.146Z,210
2022-08-01T03:26:17.196Z,246
2022-08-01T03:27:03.133Z,226
2022-08-01T03:27:49.166Z,213
2022-08-01T03:28:35.175Z,218
2022-08-01T03:29:21.168Z,210
2022-08-01T03:30:07.295Z,213
2022-08-01T03:30:53.159Z,237
2022-08-01T03:31:38.527Z,237
2022-08-01T03:32:25.176Z,235
2022-08-01T03:33:11.181Z,232
2022-08-01T03:33:57.161Z,220
2022-08-01T03:34:43.237Z,220
2022-08-01T03:35:29.177Z,219
2022-08-01T03:36:15.311Z,212
2022-08-01T03:37:01.201Z,212
2022-08-01T03:38:14.231Z,212
2022-08-01T03:38:40.324Z,212
2022-08-01T03:39:19.282Z,212
2022-08-01T03:40:05.197Z,213
2022-08-01T03:40:51.208Z,213
2022-08-01T03:41:37.218Z,213
2022-08-01T03:42:23.239Z,213
2022-08-01T03:43:09.174Z,213
2022-08-01T03:43:55.174Z,213
2022-08-01T03:44:41.209Z,213
2022-08-01T03:45:27.275Z,213
2022-08-01T03:46:13.198Z,213
2022-08-01T03:46:59.210Z,213
2022-08-01T03:47:45.241Z,213
2022-08-01T03:48:46.527Z,213
2022-08-01T03:49:17.327Z,206
2022-08-01T03:50:03.224Z,207
2022-08-01T03:50:49.239Z,207
2022-08-01T03:51:35.223Z,210
2022-08-01T03:52:21.227Z,236
2022-08-01T03:53:07.291Z,236
2022-08-01T03:53:53.253Z,236
2022-08-01T03:54:39.308Z,235
2022-08-01T03:55:25.202Z,235
2022-08-01T03:56:11.223Z,235
2022-08-01T03:56:57.229Z,235
2022-08-01T03:57:43.238Z,236
2022-08-01T03:58:29.278Z,235
2022-08-01T03:59:15.234Z,235
2022-08-01T04:00:01.715Z,236
2022-08-01T04:00:47.355Z,236
2022-08-01T04:01:33.291Z,236
2022-08-01T04:02:22.747Z,236
2022-08-01T04:03:05.343Z,235
2022-08-01T04:03:51.291Z,235
2022-08-01T04:04:37.275Z,236
2022-08-01T04:05:23.250Z,236
2022-08-01T04:06:09.252Z,236
2022-08-01T04:06:55.265Z,235
2022-08-01T04:07:41.320Z,235
2022-08-01T04:08:30.032Z,235
2022-08-01T04:09:13.892Z,226
2022-08-01T04:09:59.336Z,226
2022-08-01T04:10:45.250Z,232
2022-08-01T04:11:31.276Z,237
2022-08-01T04:12:17.348Z,237
2022-08-01T04:13:03.271Z,237
2022-08-01T04:13:49.269Z,224
2022-08-01T04:14:35.313Z,200
2022-08-01T04:15:21.317Z,210
2022-08-01T04:16:07.455Z,210
2022-08-01T04:16:53.302Z,210
2022-08-01T04:17:39.429Z,226
2022-08-01T04:18:25.309Z,229
2022-08-01T04:19:11.357Z,226
2022-08-01T04:19:57.341Z,229
2022-08-01T04:20:43.353Z,229
2022-08-01T04:21:29.357Z,241
2022-08-01T04:22:15.399Z,241
2022-08-01T04:23:01.329Z,226
2022-08-01T04:23:47.464Z,213
2022-08-01T04:24:33.351Z,221
2022-08-01T04:25:22.267Z,224
2022-08-01T04:26:05.364Z,224
2022-08-01T04:26:51.366Z,224
2022-08-01T04:27:50.581Z,224
2022-08-01T04:28:23.422Z,229
2022-08-01T04:29:09.330Z,229
2022-08-01T04:29:55.365Z,229
2022-08-01T04:30:41.479Z,232
2022-08-01T04:31:27.424Z,233
2022-08-01T04:32:13.352Z,233
2022-08-01T04:32:59.349Z,232
2022-08-01T04:33:45.371Z,233
2022-08-01T04:34:31.390Z,226
2022-08-01T04:35:23.426Z,232
2022-08-01T04:36:05.029Z,226
2022-08-01T04:36:49.400Z,228
2022-08-01T04:37:35.415Z,228
2022-08-01T04:38:21.402Z,229
2022-08-01T04:39:07.473Z,228
2022-08-01T04:39:53.380Z,232
2022-08-01T04:40:39.457Z,226
2022-08-01T04:41:25.388Z,231
2022-08-01T04:42:11.549Z,232
2022-08-01T04:42:57.536Z,231
2022-08-01T04:43:44.438Z,231
2022-08-01T04:44:32.627Z,226
2022-08-01T04:45:15.509Z,227
2022-08-01T04:46:01.399Z,230
2022-08-01T04:46:47.462Z,230
2022-08-01T04:47:33.480Z,231
2022-08-01T04:48:19.569Z,213
2022-08-01T04:49:05.476Z,226
2022-08-01T04:49:51.437Z,226
2022-08-01T04:50:37.437Z,226
2022-08-01T04:51:23.411Z,226
2022-08-01T04:52:12.671Z,226
2022-08-01T04:52:55.451Z,226
2022-08-01T04:53:41.435Z,227
2022-08-01T04:54:27.403Z,206
2022-08-01T04:55:13.393Z,206
2022-08-01T04:55:59.498Z,206
2022-08-01T04:56:45.464Z,206
2022-08-01T04:57:31.424Z,206
2022-08-01T04:58:18.211Z,206
2022-08-01T04:59:03.433Z,206
2022-08-01T04:59:49.535Z,206
2022-08-01T05:00:35.599Z,206
2022-08-01T05:01:21.489Z,206
2022-08-01T05:02:07.868Z,206
2022-08-01T05:02:53.445Z,206
2022-08-01T05:03:39.512Z,206
2022-08-01T05:04:25.463Z,206
2022-08-01T05:05:11.428Z,206
2022-08-01T05:05:57.482Z,206
2022-08-01T05:06:43.471Z,206
2022-08-01T05:07:29.447Z,206
2022-08-01T05:08:15.447Z,206
2022-08-01T05:09:01.500Z,206
2022-08-01T05:09:47.562Z,206
2022-08-01T05:10:33.425Z,206
2022-08-01T05:11:19.560Z,206
2022-08-01T05:12:05.876Z,206
2022-08-01T05:12:51.451Z,206
2022-08-01T05:13:37.501Z,206
2022-08-01T05:14:23.485Z,206
2022-08-01T05:15:15.157Z,206
2022-08-01T05:15:55.449Z,206
2022-08-01T05:16:41.489Z,206
2022-08-01T05:17:27.472Z,206
2022-08-01T05:18:13.467Z,206
2022-08-01T05:18:59.530Z,206
2022-08-01T05:19:45.552Z,206
2022-08-01T05:20:31.480Z,206
2022-08-01T05:21:17.497Z,206
2022-08-01T05:22:03.964Z,206
2022-08-01T05:22:49.549Z,206
2022-08-01T05:23:41.964Z,206
2022-08-01T05:24:21.542Z,206
2022-08-01T05:25:07.606Z,206
2022-08-01T05:25:56.761Z,206
2022-08-01T05:26:39.557Z,206
2022-08-01T05:27:25.514Z,206
2022-08-01T05:28:11.531Z,206
2022-08-01T05:28:57.493Z,206
2022-08-01T05:29:44.754Z,206
2022-08-01T05:30:29.595Z,206
2022-08-01T05:31:15.589Z,206
2022-08-01T05:32:01.464Z,206
2022-08-01T05:32:47.634Z,206
2022-08-01T05:33:33.513Z,206
2022-08-01T05:34:19.649Z,206
2022-08-01T05:35:05.568Z,206
2022-08-01T05:35:51.563Z,206
2022-08-01T05:36:37.531Z,206
2022-08-01T05:37:23.535Z,206
2022-08-01T05:38:09.521Z,206
2022-08-01T05:38:55.564Z,206
2022-08-01T05:39:41.520Z,206
2022-08-01T05:40:27.538Z,206
2022-08-01T05:41:13.581Z,206
2022-08-01T05:41:59.570Z,206
2022-08-01T05:42:45.559Z,206
2022-08-01T05:43:31.532Z,206
2022-08-01T05:44:17.546Z,206
2022-08-01T05:45:03.665Z,206
2022-08-01T05:45:49.561Z,206
2022-08-01T05:46:35.531Z,206
2022-08-01T05:47:21.551Z,206
2022-08-01T05:48:07.625Z,206
2022-08-01T05:48:53.628Z,206
2022-08-01T05:49:39.659Z,206
2022-08-01T05:50:25.599Z,212
2022-08-01T05:51:11.715Z,212
2022-08-01T05:51:57.707Z,210
2022-08-01T05:52:43.651Z,212
2022-08-01T05:53:29.562Z,212
2022-08-01T05:54:15.661Z,212
2022-08-01T05:55:01.606Z,212
2022-08-01T05:55:47.644Z,212
2022-08-01T05:56:33.607Z,212
2022-08-01T05:57:19.718Z,212
2022-08-01T05:58:05.645Z,212
2022-08-01T05:58:51.640Z,212
2022-08-01T05:59:37.625Z,212
2022-08-01T06:00:23.638Z,212
2022-08-01T06:01:09.572Z,212
2022-08-01T06:01:55.637Z,212
2022-08-01T06:02:41.714Z,212
2022-08-01T06:03:27.634Z,212
2022-08-01T06:04:13.589Z,212
2022-08-01T06:04:59.575Z,212
2022-08-01T06:05:45.623Z,212
2022-08-01T06:06:31.634Z,212
2022-08-01T06:07:16.948Z,212
2022-08-01T06:08:03.722Z,212
2022-08-01T06:08:49.839Z,212
2022-08-01T06:09:35.772Z,212
2022-08-01T06:10:21.779Z,213
2022-08-01T06:11:07.864Z,212
2022-08-01T06:11:53.752Z,212
2022-08-01T06:12:39.823Z,212
2022-08-01T06:13:25.753Z,212
2022-08-01T06:14:11.713Z,212
2022-08-01T06:14:57.720Z,212
2022-08-01T06:15:43.828Z,212
2022-08-01T06:16:29.746Z,212
2022-08-01T06:17:15.745Z,213
2022-08-01T06:18:01.726Z,213
2022-08-01T06:18:47.761Z,213
2022-08-01T06:19:33.814Z,214
2022-08-01T06:20:19.859Z,215
2022-08-01T06:21:05.729Z,216
2022-08-01T06:21:51.813Z,217
2022-08-01T06:22:37.767Z,217
2022-08-01T06:23:32.013Z,217
2022-08-01T06:24:09.822Z,217
2022-08-01T06:24:55.799Z,217
2022-08-01T06:25:41.797Z,217
2022-08-01T06:26:27.744Z,217
2022-08-01T06:27:21.450Z,217
2022-08-01T06:27:59.840Z,217
2022-08-01T06:28:45.823Z,217
2022-08-01T06:29:31.791Z,218
2022-08-01T06:30:17.826Z,218
2022-08-01T06:31:03.786Z,218
2022-08-01T06:31:49.798Z,218
2022-08-01T06:32:35.843Z,218
2022-08-01T06:33:21.803Z,218
2022-08-01T06:34:07.889Z,218
2022-08-01T06:34:53.775Z,217
2022-08-01T06:35:40.105Z,217
2022-08-01T06:36:25.815Z,217
2022-08-01T06:37:11.849Z,217
2022-08-01T06:37:57.845Z,217
2022-08-01T06:38:43.835Z,217
2022-08-01T06:39:29.823Z,217
2022-08-01T06:40:17.486Z,217
2022-08-01T06:41:01.851Z,217
2022-08-01T06:41:47.811Z,217
2022-08-01T06:42:33.830Z,217
2022-08-01T06:43:19.933Z,217
2022-08-01T06:44:05.857Z,217
2022-08-01T06:44:51.848Z,217
2022-08-01T06:45:37.844Z,217
2022-08-01T06:46:23.822Z,217
2022-08-01T06:47:09.849Z,217
2022-08-01T06:47:55.894Z,217
2022-08-01T06:48:41.843Z,217
2022-08-01T06:49:27.963Z,217
2022-08-01T06:50:13.897Z,217
2022-08-01T06:50:59.830Z,217
2022-08-01T06:51:45.886Z,217
2022-08-01T06:52:31.854Z,217
2022-08-01T06:53:17.857Z,217
2022-08-01T06:54:03.865Z,217
2022-08-01T06:54:49.830Z,217
2022-08-01T06:55:35.993Z,217
2022-08-01T06:56:21.865Z,217
2022-08-01T06:57:07.973Z,217
2022-08-01T06:57:53.898Z,217
2022-08-01T06:58:39.967Z,217
2022-08-01T06:59:25.870Z,217
2022-08-01T07:00:11.937Z,217
2022-08-01T07:00:57.964Z,217
2022-08-01T07:01:43.845Z,217
2022-08-01T07:02:29.888Z,321
2022-08-01T07:03:15.866Z,322
2022-08-01T07:04:01.983Z,17
2022-08-01T07:04:47.857Z,41
2022-08-01T07:05:33.916Z,272
2022-08-01T07:06:19.970Z,280
2022-08-01T07:07:05.819Z,7
2022-08-01T07:07:51.879Z,32
2022-08-01T07:08:37.915Z,352
2022-08-01T07:09:23.853Z,26
2022-08-01T07:10:09.897Z,42
2022-08-01T07:10:55.860Z,34
2022-08-01T07:11:41.927Z,30
2022-08-01T07:12:27.976Z,3
2022-08-01T07:13:14.088Z,282
2022-08-01T07:13:59.869Z,315
2022-08-01T07:14:45.903Z,27
2022-08-01T07:15:31.973Z,28
2022-08-01T07:16:17.914Z,3
2022-08-01T07:17:03.963Z,3
2022-08-01T07:17:49.925Z,2
2022-08-01T07:18:36.033Z,2
2022-08-01T07:19:21.989Z,2
2022-08-01T07:20:08.058Z,2
2022-08-01T07:20:53.927Z,1
2022-08-01T07:21:41.357Z,5
2022-08-01T07:22:26.070Z,4
2022-08-01T07:23:11.788Z,4
2022-08-01T07:23:57.816Z,4
2022-08-01T07:24:45.955Z,4
2022-08-01T07:25:29.913Z,5
2022-08-01T07:26:15.879Z,5
2022-08-01T07:27:24.427Z,4
2022-08-01T07:27:47.953Z,4
2022-08-01T07:28:33.981Z,4
2022-08-01T07:29:19.959Z,4
2022-08-01T07:30:05.912Z,5
2022-08-01T07:30:51.858Z,5
2022-08-01T07:31:37.864Z,6
2022-08-01T07:32:23.959Z,26
2022-08-01T07:33:09.895Z,26
2022-08-01T07:33:55.867Z,10
2022-08-01T07:34:41.845Z,27
2022-08-01T07:35:27.874Z,355
2022-08-01T07:36:13.887Z,347
2022-08-01T07:36:59.839Z,347
2022-08-01T07:37:55.886Z,17
2022-08-01T07:38:31.895Z,18
2022-08-01T07:39:17.845Z,35
2022-08-01T07:40:03.836Z,19
2022-08-01T07:40:49.859Z,20
2022-08-01T07:41:53.540Z,38
2022-08-01T07:42:22.014Z,30
2022-08-01T07:43:08.075Z,29
2022-08-01T07:43:58.711Z,29
2022-08-01T07:44:40.018Z,29
2022-08-01T07:45:26.053Z,29
2022-08-01T07:46:12.042Z,29
2022-08-01T07:46:58.006Z,29
2022-08-01T07:47:44.053Z,351
2022-08-01T07:48:30.048Z,55
2022-08-01T07:49:15.959Z,53
2022-08-01T07:50:02.005Z,52
2022-08-01T07:50:47.910Z,52
2022-08-01T07:51:33.857Z,53
2022-08-01T07:52:20.345Z,52
2022-08-01T07:53:05.938Z,356
2022-08-01T07:53:51.925Z,20
2022-08-01T07:54:37.897Z,358
2022-08-01T07:55:24.006Z,1
2022-08-01T07:56:09.957Z,2
2022-08-01T07:56:55.953Z,9
2022-08-01T07:57:41.987Z,9
2022-08-01T07:58:27.946Z,8
2022-08-01T07:59:13.916Z,9
2022-08-01T08:00:00.007Z,7
2022-08-01T08:00:45.996Z,353
2022-08-01T08:01:32.084Z,14
2022-08-01T08:02:21.038Z,14
2022-08-01T08:03:04.064Z,14
2022-08-01T08:03:49.907Z,14
2022-08-01T08:04:36.150Z,14
2022-08-01T08:05:58.878Z,14
2022-08-01T08:06:08.105Z,14
2022-08-01T08:06:54.124Z,14
2022-08-01T08:07:40.097Z,14
2022-08-01T08:08:26.082Z,14
2022-08-01T08:09:12.046Z,14
2022-08-01T08:09:58.132Z,14
2022-08-01T08:10:44.108Z,14
2022-08-01T08:11:30.171Z,14
2022-08-01T08:12:16.415Z,14
2022-08-01T08:13:02.160Z,14
2022-08-01T08:14:03.593Z,14
2022-08-01T08:14:34.039Z,14
2022-08-01T08:15:20.249Z,14
2022-08-01T08:16:06.084Z,14
2022-08-01T08:16:52.099Z,14
2022-08-01T08:17:38.086Z,15
2022-08-01T08:18:24.101Z,14
2022-08-01T08:19:09.994Z,327
2022-08-01T08:19:55.966Z,353
2022-08-01T08:20:42.048Z,352
2022-08-01T08:21:28.019Z,352
2022-08-01T08:22:14.013Z,352
2022-08-01T08:23:00.016Z,352
2022-08-01T08:23:46.051Z,352
2022-08-01T08:24:32.018Z,352
2022-08-01T08:25:18.045Z,352
2022-08-01T08:26:04.026Z,46
2022-08-01T08:26:52.264Z,36
2022-08-01T08:27:37.537Z,36
2022-08-01T08:28:26.437Z,36
2022-08-01T08:29:08.080Z,34
2022-08-01T08:29:53.986Z,34
2022-08-01T08:30:40.071Z,33
2022-08-01T08:31:51.735Z,28
2022-08-01T08:32:12.132Z,14
2022-08-01T08:33:05.352Z,14
2022-08-01T08:33:44.262Z,8
2022-08-01T08:34:30.145Z,8
2022-08-01T08:35:20.138Z,8
2022-08-01T08:36:02.215Z,8
2022-08-01T08:36:48.262Z,8
2022-08-01T08:37:39.021Z,298
2022-08-01T08:38:20.240Z,293
2022-08-01T08:39:06.141Z,290
2022-08-01T08:39:52.153Z,246
2022-08-01T08:40:38.129Z,250
2022-08-01T08:41:24.186Z,214
2022-08-01T08:42:10.336Z,214
2022-08-01T08:42:56.422Z,214
2022-08-01T08:43:42.186Z,216
2022-08-01T08:44:28.187Z,216
2022-08-01T08:45:14.265Z,203
2022-08-01T08:46:00.508Z,269
2022-08-01T08:46:46.171Z,268
2022-08-01T08:47:32.159Z,270
2022-08-01T08:48:18.327Z,270
2022-08-01T08:49:04.271Z,271
2022-08-01T08:49:50.178Z,357
2022-08-01T08:50:39.068Z,18
2022-08-01T08:51:22.197Z,18
2022-08-01T08:52:09.004Z,13
2022-08-01T08:52:54.088Z,10
2022-08-01T08:53:40.171Z,9
2022-08-01T08:54:29.185Z,8
2022-08-01T08:55:12.052Z,7
2022-08-01T08:55:58.102Z,9
2022-08-01T08:56:44.074Z,25
2022-08-01T08:57:30.082Z,25
2022-08-01T08:58:16.114Z,27
2022-08-01T08:59:02.075Z,27
2022-08-01T08:59:48.120Z,27
2022-08-01T09:00:34.282Z,28
2022-08-01T09:01:20.618Z,30
2022-08-01T09:02:07.967Z,24
2022-08-01T09:02:59.421Z,24
2022-08-01T09:03:38.146Z,24
2022-08-01T09:04:25.964Z,15
2022-08-01T09:05:10.096Z,15
2022-08-01T09:05:56.107Z,30
2022-08-01T09:06:42.107Z,33
2022-08-01T09:07:28.095Z,7
2022-08-01T09:08:14.188Z,7
2022-08-01T09:09:00.111Z,7
2022-08-01T09:09:46.128Z,7
2022-08-01T09:10:32.155Z,9
2022-08-01T09:11:23.152Z,4
2022-08-01T09:12:04.162Z,5
2022-08-01T09:12:50.190Z,5
2022-08-01T09:13:36.215Z,5
2022-08-01T09:14:22.198Z,5
2022-08-01T09:15:08.189Z,5
2022-08-01T09:15:54.167Z,5
2022-08-01T09:16:41.708Z,5
2022-08-01T09:17:26.187Z,5
2022-08-01T09:18:12.151Z,5
2022-08-01T09:18:58.112Z,5
2022-08-01T09:19:44.138Z,5
2022-08-01T09:20:30.170Z,4
2022-08-01T09:21:16.161Z,5
2022-08-01T09:22:02.167Z,5
2022-08-01T09:22:48.240Z,5
2022-08-01T09:23:34.149Z,5
2022-08-01T09:24:29.711Z,5
2022-08-01T09:25:06.177Z,5
2022-08-01T09:25:52.182Z,5
2022-08-01T09:26:38.212Z,5
2022-08-01T09:27:24.345Z,5
2022-08-01T09:28:10.263Z,5
2022-08-01T09:28:56.173Z,5
2022-08-01T09:29:42.306Z,25
2022-08-01T09:30:28.439Z,8
2022-08-01T09:31:14.307Z,39
2022-08-01T09:32:00.332Z,16
2022-08-01T09:32:46.353Z,34
2022-08-01T09:33:36.860Z,55
2022-08-01T09:34:19.897Z,44
2022-08-01T09:35:04.307Z,40
2022-08-01T09:35:50.342Z,39
2022-08-01T09:36:36.314Z,40
2022-08-01T09:37:24.199Z,11
2022-08-01T09:38:08.243Z,10
2022-08-01T09:38:54.237Z,25
2022-08-01T09:39:40.313Z,25
2022-08-01T09:40:26.344Z,21
2022-08-01T09:41:12.328Z,20
2022-08-01T09:41:58.400Z,4
2022-08-01T09:42:49.342Z,3
2022-08-01T09:43:31.305Z,4
2022-08-01T09:44:16.355Z,7
2022-08-01T09:45:02.522Z,8
2022-08-01T09:45:50.454Z,8
2022-08-01T09:46:34.379Z,8
2022-08-01T09:47:20.442Z,8
2022-08-01T09:48:06.300Z,8
2022-08-01T09:48:52.263Z,8
2022-08-01T09:49:49.761Z,8
2022-08-01T09:50:24.461Z,8
2022-08-01T09:51:10.437Z,8
2022-08-01T09:51:58.909Z,293
2022-08-01T09:52:42.334Z,293
2022-08-01T09:53:30.624Z,224
2022-08-01T09:54:14.362Z,227
2022-08-01T09:55:00.354Z,244
2022-08-01T09:55:46.339Z,248
2022-08-01T09:56:32.373Z,249
2022-08-01T09:57:18.374Z,249
2022-08-01T09:58:04.340Z,272
2022-08-01T09:58:52.632Z,272
2022-08-01T09:59:56.742Z,272
2022-08-01T10:00:43.016Z,271
2022-08-01T10:01:08.325Z,219
2022-08-01T10:01:54.260Z,220
2022-08-01T10:02:40.389Z,220
2022-08-01T10:03:26.387Z,219
2022-08-01T10:04:12.622Z,219
2022-08-01T10:05:07.629Z,218
2022-08-01T10:05:46.822Z,217
2022-08-01T10:06:30.289Z,216
2022-08-01T10:07:16.279Z,250
2022-08-01T10:08:02.274Z,251
2022-08-01T10:08:48.300Z,251
2022-08-01T10:09:40.258Z,302
2022-08-01T10:10:20.523Z,301
2022-08-01T10:11:09.096Z,301
2022-08-01T10:11:52.910Z,303
2022-08-01T10:12:38.274Z,21
2022-08-01T10:13:24.281Z,7
2022-08-01T10:14:10.424Z,7
2022-08-01T10:14:56.371Z,20
2022-08-01T10:15:42.344Z,18
2022-08-01T10:16:28.380Z,47
2022-08-01T10:17:18.514Z,55
2022-08-01T10:18:00.386Z,25
2022-08-01T10:18:46.410Z,21
2022-08-01T10:19:32.427Z,20
2022-08-01T10:20:28.948Z,22
2022-08-01T10:21:04.473Z,20
2022-08-01T10:21:57.640Z,8
2022-08-01T10:22:36.490Z,27
2022-08-01T10:23:22.460Z,27
2022-08-01T10:24:08.466Z,32
2022-08-01T10:24:54.438Z,39
2022-08-01T10:25:42.510Z,290
2022-08-01T10:26:26.479Z,25
2022-08-01T10:27:12.973Z,24
2022-08-01T10:27:58.458Z,261
2022-08-01T10:28:44.452Z,267
2022-08-01T10:29:46.229Z,328
2022-08-01T10:30:23.415Z,250
2022-08-01T10:31:02.610Z,251
2022-08-01T10:31:50.416Z,250
2022-08-01T10:32:34.484Z,251
2022-08-01T10:33:51.475Z,291
2022-08-01T10:34:06.492Z,311
2022-08-01T10:34:52.941Z,311
2022-08-01T10:35:46.517Z,311
2022-08-01T10:36:25.573Z,311
2022-08-01T10:37:10.480Z,311
2022-08-01T10:37:56.530Z,311
2022-08-01T10:38:42.483Z,311
2022-08-01T10:39:28.649Z,176
2022-08-01T10:40:29.960Z,176
2022-08-01T10:41:00.565Z,236
2022-08-01T10:41:46.478Z,244